createdAt,value
2023-03-05T00:00:19.469Z,945.6
2023-03-05T00:01:21.507Z,945.5
2023-03-05T00:02:23.582Z,945.5
2023-03-05T00:03:25.724Z,945.5
2023-03-05T00:04:27.670Z,945.5
2023-03-05T00:05:29.512Z,945.5
2023-03-05T00:06:31.495Z,945.5
2023-03-05T00:07:33.232Z,945.4
2023-03-05T00:08:34.959Z,945.4
2023-03-05T00:09:36.816Z,945.4
2023-03-05T00:10:38.769Z,945.4
2023-03-05T00:11:40.620Z,945.5
2023-03-05T00:12:42.573Z,945.4
2023-03-05T00:13:44.344Z,945.5
2023-03-05T00:14:46.259Z,945.5
2023-03-05T00:15:48.359Z,945.4
2023-03-05T00:16:50.270Z,945.4
2023-03-05T00:17:52.123Z,945.4
2023-03-05T00:18:53.984Z,945.4
2023-03-05T00:19:55.923Z,945.4
2023-03-05T00:20:57.769Z,945.4
2023-03-05T00:21:59.590Z,945.4
2023-03-05T00:23:01.500Z,945.3
2023-03-05T00:24:03.532Z,945.4
2023-03-05T00:25:05.783Z,945.4
2023-03-05T00:26:07.642Z,945.4
2023-03-05T00:27:09.594Z,945.3
2023-03-05T00:28:11.547Z,945.3
2023-03-05T00:29:13.397Z,945.3
2023-03-05T00:30:15.245Z,945.3
2023-03-05T00:31:17.422Z,945.2
2023-03-05T00:32:19.693Z,945.2
2023-03-05T00:33:21.691Z,945.2
2023-03-05T00:34:23.570Z,945.2
2023-03-05T00:35:25.788Z,945.2
2023-03-05T00:36:27.726Z,945.2
2023-03-05T00:37:29.453Z,945.2
2023-03-05T00:38:31.284Z,945.2
2023-03-05T00:39:33.236Z,945.2
2023-03-05T00:40:35.211Z,945.2
2023-03-05T00:41:37.124Z,945.2
2023-03-05T00:42:39.203Z,945.1
2023-03-05T00:43:41.043Z,945.1
2023-03-05T00:44:42.899Z,945.1
2023-03-05T00:45:44.849Z,945.1
2023-03-05T00:46:46.971Z,945.1
2023-03-05T00:47:49.056Z,945.1
2023-03-05T00:48:50.913Z,945.1
2023-03-05T00:49:52.748Z,945.1
2023-03-05T00:50:54.506Z,945.1
2023-03-05T00:51:56.356Z,945.1
2023-03-05T00:52:58.222Z,945.1
2023-03-05T00:54:00.148Z,945.1
2023-03-05T00:55:01.999Z,945.1
2023-03-05T00:56:03.958Z,945.1
2023-03-05T00:57:05.822Z,945.1
2023-03-05T00:58:07.651Z,945
2023-03-05T00:59:09.613Z,945
2023-03-05T01:00:11.453Z,945
2023-03-05T01:01:13.408Z,945
2023-03-05T01:02:15.252Z,945
2023-03-05T01:03:17.053Z,945
2023-03-05T01:04:18.844Z,945
2023-03-05T01:05:20.907Z,944.9
2023-03-05T01:06:22.960Z,944.9
2023-03-05T01:07:24.695Z,944.9
2023-03-05T01:08:29.557Z,944.9
2023-03-05T01:09:31.593Z,944.9
2023-03-05T01:10:33.931Z,944.9
2023-03-05T01:11:35.788Z,944.9
2023-03-05T01:12:37.631Z,944.9
2023-03-05T01:13:39.475Z,944.9
2023-03-05T01:14:41.230Z,944.9
2023-03-05T01:15:43.075Z,944.8
2023-03-05T01:16:44.939Z,944.9
2023-03-05T01:17:46.800Z,944.9
2023-03-05T01:18:48.637Z,944.9
2023-03-05T01:19:50.503Z,944.9
2023-03-05T01:20:52.329Z,944.9
2023-03-05T01:21:54.271Z,944.8
2023-03-05T01:22:56.131Z,944.8
2023-03-05T01:23:57.839Z,944.8
2023-03-05T01:24:59.828Z,944.8
2023-03-05T01:26:01.668Z,944.8
2023-03-05T01:27:06.660Z,944.8
2023-03-05T01:28:08.443Z,944.7
2023-03-05T01:29:10.292Z,944.8
2023-03-05T01:30:12.261Z,944.7
2023-03-05T01:31:14.207Z,944.7
2023-03-05T01:32:16.194Z,944.8
2023-03-05T01:33:18.124Z,944.8
2023-03-05T01:34:20.051Z,944.8
2023-03-05T01:35:22.083Z,944.8
2023-03-05T01:36:24.073Z,944.8
2023-03-05T01:37:25.737Z,944.7
2023-03-05T01:38:27.669Z,944.8
2023-03-05T01:39:29.515Z,944.7
2023-03-05T01:40:31.458Z,944.8
2023-03-05T01:41:33.216Z,944.7
2023-03-05T01:42:35.058Z,944.8
2023-03-05T01:43:36.912Z,944.8
2023-03-05T01:44:38.864Z,944.8
2023-03-05T01:45:40.840Z,944.8
2023-03-05T01:46:42.768Z,944.8
2023-03-05T01:47:44.570Z,944.7
2023-03-05T01:48:46.400Z,944.8
2023-03-05T01:49:48.319Z,944.7
2023-03-05T01:50:50.173Z,944.8
2023-03-05T01:51:52.015Z,944.8
2023-03-05T01:52:53.874Z,944.8
2023-03-05T01:53:55.616Z,944.8
2023-03-05T01:54:57.622Z,944.8
2023-03-05T01:55:59.425Z,944.8
2023-03-05T01:57:01.200Z,944.8
2023-03-05T01:58:03.021Z,944.8
2023-03-05T01:59:04.978Z,944.8
2023-03-05T02:00:06.948Z,944.8
2023-03-05T02:01:09.097Z,944.8
2023-03-05T02:02:10.966Z,944.8
2023-03-05T02:03:12.774Z,944.8
2023-03-05T02:04:14.663Z,944.8
2023-03-05T02:05:16.584Z,944.8
2023-03-05T02:06:18.442Z,944.8
2023-03-05T02:07:20.176Z,944.8
2023-03-05T02:08:22.022Z,944.8
2023-03-05T02:09:23.879Z,944.8
2023-03-05T02:10:25.735Z,944.8
2023-03-05T02:11:27.581Z,944.8
2023-03-05T02:12:29.424Z,944.8
2023-03-05T02:13:31.285Z,944.7
2023-03-05T02:14:33.031Z,944.8
2023-03-05T02:15:34.975Z,944.8
2023-03-05T02:16:37.201Z,944.8
2023-03-05T02:17:39.133Z,944.8
2023-03-05T02:18:40.937Z,944.8
2023-03-05T02:19:42.820Z,944.8
2023-03-05T02:20:44.748Z,944.8
2023-03-05T02:21:46.592Z,944.8
2023-03-05T02:22:48.570Z,944.8
2023-03-05T02:23:50.260Z,944.8
2023-03-05T02:24:52.150Z,944.8
2023-03-05T02:25:53.891Z,944.8
2023-03-05T02:26:55.736Z,944.8
2023-03-05T02:27:57.695Z,944.8
2023-03-05T02:28:59.539Z,944.8
2023-03-05T02:30:01.413Z,944.8
2023-03-05T02:31:03.249Z,944.8
2023-03-05T02:32:05.642Z,944.8
2023-03-05T02:33:07.657Z,944.8
2023-03-05T02:34:09.516Z,944.8
2023-03-05T02:35:11.386Z,944.8
2023-03-05T02:36:13.326Z,944.8
2023-03-05T02:37:14.980Z,944.8
2023-03-05T02:38:16.803Z,944.8
2023-03-05T02:39:18.762Z,944.8
2023-03-05T02:40:20.617Z,944.8
2023-03-05T02:41:22.563Z,944.8
2023-03-05T02:42:24.410Z,944.8
2023-03-05T02:43:26.258Z,944.8
2023-03-05T02:44:28.121Z,944.8
2023-03-05T02:45:30.083Z,944.8
2023-03-05T02:46:32.130Z,944.8
2023-03-05T02:47:33.974Z,944.9
2023-03-05T02:48:35.816Z,944.9
2023-03-05T02:49:37.676Z,944.9
2023-03-05T02:50:39.439Z,944.8
2023-03-05T02:51:41.470Z,944.8
2023-03-05T02:52:43.333Z,944.9
2023-03-05T02:53:47.870Z,944.9
2023-03-05T02:54:49.507Z,944.8
2023-03-05T02:55:54.308Z,944.9
2023-03-05T02:56:56.258Z,944.8
2023-03-05T02:57:58.109Z,944.8
2023-03-05T02:58:59.952Z,944.9
2023-03-05T03:00:02.465Z,944.8
2023-03-05T03:01:04.687Z,944.8
2023-03-05T03:02:06.522Z,944.8
2023-03-05T03:03:08.538Z,944.8
2023-03-05T03:04:10.440Z,944.8
2023-03-05T03:05:12.291Z,944.8
2023-03-05T03:06:16.915Z,944.7
2023-03-05T03:07:18.857Z,944.7
2023-03-05T03:08:20.736Z,944.7
2023-03-05T03:09:22.562Z,944.8
2023-03-05T03:10:24.395Z,944.8
2023-03-05T03:11:26.258Z,944.8
2023-03-05T03:12:30.900Z,944.8
2023-03-05T03:13:32.736Z,944.8
2023-03-05T03:14:34.579Z,944.8
2023-03-05T03:15:36.413Z,944.7
2023-03-05T03:16:38.511Z,944.8
2023-03-05T03:17:40.420Z,944.8
2023-03-05T03:18:42.282Z,944.7
2023-03-05T03:19:44.054Z,944.8
2023-03-05T03:20:46.033Z,944.8
2023-03-05T03:21:48.019Z,944.8
2023-03-05T03:22:49.885Z,944.8
2023-03-05T03:23:51.727Z,944.8
2023-03-05T03:24:53.580Z,944.8
2023-03-05T03:25:55.531Z,944.8
2023-03-05T03:26:57.381Z,944.8
2023-03-05T03:27:59.241Z,944.8
2023-03-05T03:29:01.088Z,944.8
2023-03-05T03:30:02.885Z,944.8
2023-03-05T03:31:04.926Z,944.7
2023-03-05T03:32:06.983Z,944.7
2023-03-05T03:33:09.001Z,944.7
2023-03-05T03:34:10.845Z,944.7
2023-03-05T03:35:12.614Z,944.7
2023-03-05T03:36:14.451Z,944.7
2023-03-05T03:37:16.316Z,944.7
2023-03-05T03:38:18.250Z,944.7
2023-03-05T03:39:20.209Z,944.7
2023-03-05T03:40:22.261Z,944.7
2023-03-05T03:41:24.003Z,944.6
2023-03-05T03:42:25.858Z,944.6
2023-03-05T03:43:27.597Z,944.6
2023-03-05T03:44:29.561Z,944.7
2023-03-05T03:45:34.368Z,944.6
2023-03-05T03:46:36.374Z,944.7
2023-03-05T03:47:38.378Z,944.6
2023-03-05T03:48:40.305Z,944.6
2023-03-05T03:49:42.178Z,944.6
2023-03-05T03:50:44.131Z,944.6
2023-03-05T03:51:46.094Z,944.6
2023-03-05T03:52:47.948Z,944.6
2023-03-05T03:53:49.902Z,944.6
2023-03-05T03:54:51.642Z,944.7
2023-03-05T03:55:53.465Z,944.6
2023-03-05T03:56:55.342Z,944.7
2023-03-05T03:57:57.271Z,944.7
2023-03-05T03:58:59.142Z,944.7
2023-03-05T04:00:01.020Z,944.7
2023-03-05T04:01:02.862Z,944.8
2023-03-05T04:02:04.795Z,944.8
2023-03-05T04:03:06.545Z,944.8
2023-03-05T04:04:08.521Z,944.8
2023-03-05T04:05:10.461Z,944.8
2023-03-05T04:06:12.295Z,944.8
2023-03-05T04:07:16.812Z,944.8
2023-03-05T04:08:18.612Z,944.8
2023-03-05T04:09:20.605Z,944.9
2023-03-05T04:10:22.459Z,944.8
2023-03-05T04:11:24.411Z,944.8
2023-03-05T04:12:26.360Z,944.8
2023-03-05T04:13:28.124Z,944.8
2023-03-05T04:14:29.967Z,944.8
2023-03-05T04:15:31.820Z,944.8
2023-03-05T04:16:33.638Z,944.8
2023-03-05T04:17:35.623Z,944.8
2023-03-05T04:18:37.477Z,944.8
2023-03-05T04:19:39.320Z,944.8
2023-03-05T04:20:41.170Z,944.8
2023-03-05T04:21:42.951Z,944.8
2023-03-05T04:22:44.872Z,944.8
2023-03-05T04:23:46.664Z,944.8
2023-03-05T04:24:48.469Z,944.8
2023-03-05T04:25:50.233Z,944.8
2023-03-05T04:26:52.058Z,944.7
2023-03-05T04:27:53.915Z,944.8
2023-03-05T04:28:55.763Z,944.7
2023-03-05T04:29:57.715Z,944.7
2023-03-05T04:30:59.813Z,944.7
2023-03-05T04:32:01.988Z,944.7
2023-03-05T04:33:03.979Z,944.7
2023-03-05T04:34:05.732Z,944.7
2023-03-05T04:35:07.569Z,944.7
2023-03-05T04:36:09.440Z,944.7
2023-03-05T04:37:11.271Z,944.7
2023-03-05T04:38:13.155Z,944.7
2023-03-05T04:39:14.991Z,944.7
2023-03-05T04:40:16.824Z,944.7
2023-03-05T04:41:18.669Z,944.6
2023-03-05T04:42:20.520Z,944.7
2023-03-05T04:43:22.481Z,944.6
2023-03-05T04:44:24.422Z,944.6
2023-03-05T04:45:26.296Z,944.7
2023-03-05T04:46:28.165Z,944.6
2023-03-05T04:47:30.080Z,944.6
2023-03-05T04:48:31.860Z,944.6
2023-03-05T04:49:33.673Z,944.6
2023-03-05T04:50:35.447Z,944.6
2023-03-05T04:51:37.268Z,944.6
2023-03-05T04:52:39.226Z,944.6
2023-03-05T04:53:41.169Z,944.6
2023-03-05T04:54:43.055Z,944.6
2023-03-05T04:55:44.824Z,944.6
2023-03-05T04:56:46.635Z,944.6
2023-03-05T04:57:48.454Z,944.6
2023-03-05T04:58:50.336Z,944.7
2023-03-05T04:59:52.168Z,944.7
2023-03-05T05:00:54.022Z,944.7
2023-03-05T05:01:58.902Z,944.6
2023-03-05T05:03:01.071Z,944.7
2023-03-05T05:04:03.051Z,944.7
2023-03-05T05:05:05.007Z,944.7
2023-03-05T05:06:06.864Z,944.7
2023-03-05T05:07:08.706Z,944.7
2023-03-05T05:08:10.762Z,944.7
2023-03-05T05:09:12.618Z,944.7
2023-03-05T05:10:14.493Z,944.7
2023-03-05T05:11:16.419Z,944.7
2023-03-05T05:12:18.269Z,944.7
2023-03-05T05:13:20.114Z,944.7
2023-03-05T05:14:21.999Z,944.7
2023-03-05T05:15:23.709Z,944.8
2023-03-05T05:16:25.621Z,944.8
2023-03-05T05:17:27.628Z,944.8
2023-03-05T05:18:29.480Z,944.8
2023-03-05T05:19:31.562Z,944.7
2023-03-05T05:20:33.585Z,944.8
2023-03-05T05:21:35.472Z,944.8
2023-03-05T05:22:37.275Z,944.8
2023-03-05T05:23:39.152Z,944.7
2023-03-05T05:24:41.089Z,944.8
2023-03-05T05:25:42.956Z,944.8
2023-03-05T05:26:44.790Z,944.8
2023-03-05T05:27:46.629Z,944.8
2023-03-05T05:28:48.477Z,944.8
2023-03-05T05:29:50.250Z,944.7
2023-03-05T05:30:52.188Z,944.8
2023-03-05T05:31:54.540Z,944.8
2023-03-05T05:32:56.500Z,944.8
2023-03-05T05:33:58.229Z,944.8
2023-03-05T05:35:00.205Z,944.8
2023-03-05T05:36:02.148Z,944.8
2023-03-05T05:37:04.012Z,944.8
2023-03-05T05:38:08.585Z,944.9
2023-03-05T05:39:10.365Z,944.9
2023-03-05T05:40:12.145Z,944.9
2023-03-05T05:41:14.113Z,944.9
2023-03-05T05:42:15.927Z,944.9
2023-03-05T05:43:17.874Z,944.9
2023-03-05T05:44:19.723Z,944.9
2023-03-05T05:45:21.702Z,944.9
2023-03-05T05:46:24.166Z,944.9
2023-03-05T05:47:26.290Z,944.9
2023-03-05T05:48:28.119Z,944.9
2023-03-05T05:49:30.006Z,944.9
2023-03-05T05:50:31.838Z,945
2023-03-05T05:51:33.696Z,945
2023-03-05T05:52:35.546Z,945
2023-03-05T05:53:37.402Z,945
2023-03-05T05:54:39.347Z,945.1
2023-03-05T05:55:41.202Z,945.1
2023-03-05T05:56:43.084Z,945.1
2023-03-05T05:57:45.005Z,945.1
2023-03-05T05:58:46.855Z,945
2023-03-05T05:59:48.910Z,945.1
2023-03-05T06:00:50.864Z,945.1
2023-03-05T06:01:52.812Z,945.1
2023-03-05T06:02:55.108Z,945.1
2023-03-05T06:03:57.025Z,945.1
2023-03-05T06:04:58.972Z,945.1
2023-03-05T06:06:00.828Z,945.1
2023-03-05T06:07:02.674Z,945.1
2023-03-05T06:08:04.520Z,945.1
2023-03-05T06:09:06.266Z,945.1
2023-03-05T06:10:08.218Z,945.1
2023-03-05T06:11:10.174Z,945.1
2023-03-05T06:12:12.060Z,945.1
2023-03-05T06:13:13.897Z,945.1
2023-03-05T06:14:15.654Z,945.1
2023-03-05T06:15:17.581Z,945.2
2023-03-05T06:16:19.549Z,945.2
2023-03-05T06:17:31.418Z,945.2
2023-03-05T06:18:33.267Z,945.2
2023-03-05T06:19:35.294Z,945.2
2023-03-05T06:20:37.179Z,945.2
2023-03-05T06:21:41.663Z,945.2
2023-03-05T06:22:43.431Z,945.2
2023-03-05T06:23:45.205Z,945.2
2023-03-05T06:24:47.125Z,945.2
2023-03-05T06:25:49.095Z,945.2
2023-03-05T06:26:51.042Z,945.3
2023-03-05T06:27:52.902Z,945.2
2023-03-05T06:28:54.733Z,945.2
2023-03-05T06:29:59.242Z,945.2
2023-03-05T06:31:01.503Z,945.3
2023-03-05T06:32:03.612Z,945.2
2023-03-05T06:33:05.446Z,945.2
2023-03-05T06:34:07.365Z,945.3
2023-03-05T06:35:09.231Z,945.2
2023-03-05T06:36:11.039Z,945.2
2023-03-05T06:37:13.043Z,945.2
2023-03-05T06:38:14.863Z,945.3
2023-03-05T06:39:16.815Z,945.2
2023-03-05T06:40:18.565Z,945.2
2023-03-05T06:41:20.422Z,945.3
2023-03-05T06:42:22.262Z,945.2
2023-03-05T06:43:24.144Z,945.3
2023-03-05T06:44:26.046Z,945.3
2023-03-05T06:45:27.926Z,945.3
2023-03-05T06:46:29.866Z,945.3
2023-03-05T06:47:31.725Z,945.3
2023-03-05T06:48:33.579Z,945.3
2023-03-05T06:49:35.420Z,945.3
2023-03-05T06:50:37.169Z,945.2
2023-03-05T06:51:39.130Z,945.3
2023-03-05T06:52:40.977Z,945.3
2023-03-05T06:53:42.822Z,945.3
2023-03-05T06:54:44.676Z,945.3
2023-03-05T06:55:46.628Z,945.3
2023-03-05T06:56:48.471Z,945.3
2023-03-05T06:57:50.334Z,945.2
2023-03-05T06:58:52.114Z,945.3
2023-03-05T06:59:53.923Z,945.3
2023-03-05T07:00:55.807Z,945.3
2023-03-05T07:01:57.821Z,945.3
2023-03-05T07:02:59.671Z,945.3
2023-03-05T07:04:01.519Z,945.3
2023-03-05T07:05:03.372Z,945.2
2023-03-05T07:06:05.123Z,945.3
2023-03-05T07:07:07.074Z,945.3
2023-03-05T07:08:08.827Z,945.3
2023-03-05T07:09:10.671Z,945.3
2023-03-05T07:10:12.416Z,945.3
2023-03-05T07:11:14.266Z,945.3
2023-03-05T07:12:16.120Z,945.3
2023-03-05T07:13:17.967Z,945.3
2023-03-05T07:14:19.839Z,945.3
2023-03-05T07:15:21.675Z,945.4
2023-03-05T07:16:23.616Z,945.3
2023-03-05T07:17:25.476Z,945.3
2023-03-05T07:18:27.245Z,945.3
2023-03-05T07:19:29.179Z,945.3
2023-03-05T07:20:31.020Z,945.3
2023-03-05T07:21:32.872Z,945.3
2023-03-05T07:22:34.729Z,945.3
2023-03-05T07:23:39.309Z,945.3
2023-03-05T07:24:41.190Z,945.3
2023-03-05T07:25:42.973Z,945.3
2023-03-05T07:26:44.781Z,945.3
2023-03-05T07:27:48.586Z,945.3
2023-03-05T07:28:50.337Z,945.3
2023-03-05T07:29:52.199Z,945.3
2023-03-05T07:30:54.253Z,945.3
2023-03-05T07:31:56.194Z,945.3
2023-03-05T07:32:58.033Z,945.3
2023-03-05T07:33:59.884Z,945.3
2023-03-05T07:35:01.761Z,945.3
2023-03-05T07:36:03.581Z,945.2
2023-03-05T07:37:05.441Z,945.2
2023-03-05T07:38:07.282Z,945.3
2023-03-05T07:39:09.239Z,945.3
2023-03-05T07:40:11.096Z,945.3
2023-03-05T07:41:12.936Z,945.3
2023-03-05T07:42:14.913Z,945.3
2023-03-05T07:43:16.851Z,945.3
2023-03-05T07:44:18.697Z,945.3
2023-03-05T07:45:20.673Z,945.3
2023-03-05T07:46:22.775Z,945.3
2023-03-05T07:47:24.685Z,945.3
2023-03-05T07:48:26.619Z,945.3
2023-03-05T07:49:28.556Z,945.4
2023-03-05T07:50:30.415Z,945.3
2023-03-05T07:51:32.153Z,945.3
2023-03-05T07:52:34.003Z,945.4
2023-03-05T07:53:35.977Z,945.3
2023-03-05T07:54:37.805Z,945.3
2023-03-05T07:55:39.653Z,945.3
2023-03-05T07:56:41.510Z,945.4
2023-03-05T07:57:43.473Z,945.4
2023-03-05T07:58:45.933Z,945.4
2023-03-05T07:59:47.705Z,945.3
2023-03-05T08:00:49.546Z,945.4
2023-03-05T08:01:51.470Z,945.4
2023-03-05T08:02:53.561Z,945.4
2023-03-05T08:03:55.701Z,945.3
2023-03-05T08:04:57.533Z,945.3
2023-03-05T08:05:59.323Z,945.3
2023-03-05T08:07:01.232Z,945.4
2023-03-05T08:08:03.009Z,945.3
2023-03-05T08:09:04.952Z,945.3
2023-03-05T08:10:06.692Z,945.3
2023-03-05T08:11:08.445Z,945.3
2023-03-05T08:12:10.321Z,945.3
2023-03-05T08:13:12.234Z,945.3
2023-03-05T08:14:14.092Z,945.3
2023-03-05T08:15:15.945Z,945.3
2023-03-05T08:16:18.114Z,945.3
2023-03-05T08:17:20.257Z,945.3
2023-03-05T08:18:22.100Z,945.3
2023-03-05T08:19:23.950Z,945.3
2023-03-05T08:20:25.960Z,945.3
2023-03-05T08:21:27.965Z,945.3
2023-03-05T08:22:29.813Z,945.3
2023-03-05T08:23:31.660Z,945.3
2023-03-05T08:24:33.512Z,945.3
2023-03-05T08:25:35.676Z,945.3
2023-03-05T08:26:37.665Z,945.3
2023-03-05T08:27:39.476Z,945.4
2023-03-05T08:28:43.979Z,945.3
2023-03-05T08:29:45.837Z,945.3
2023-03-05T08:30:47.596Z,945.3
2023-03-05T08:31:49.554Z,945.3
2023-03-05T08:32:51.380Z,945.3
2023-03-05T08:33:53.340Z,945.3
2023-03-05T08:34:55.186Z,945.3
2023-03-05T08:35:57.285Z,945.3
2023-03-05T08:36:59.203Z,945.3
2023-03-05T08:38:01.053Z,945.3
2023-03-05T08:39:02.932Z,945.2
2023-03-05T08:40:04.737Z,945.2
2023-03-05T08:41:06.798Z,945.2
2023-03-05T08:42:09.469Z,945.2
2023-03-05T08:43:11.307Z,945.2
2023-03-05T08:44:13.166Z,945.2
2023-03-05T08:45:14.913Z,945.2
2023-03-05T08:46:17.016Z,945.2
2023-03-05T08:47:19.144Z,945.1
2023-03-05T08:48:21.000Z,945.2
2023-03-05T08:49:22.930Z,945.1
2023-03-05T08:50:24.978Z,945.2
2023-03-05T08:51:26.843Z,945.1
2023-03-05T08:52:28.897Z,945.1
2023-03-05T08:53:30.733Z,945.1
2023-03-05T08:54:32.510Z,945.1
2023-03-05T08:55:34.224Z,945
2023-03-05T08:56:36.191Z,945.1
2023-03-05T08:57:38.029Z,945.1
2023-03-05T08:58:39.713Z,945.1
2023-03-05T08:59:41.530Z,945
2023-03-05T09:00:43.377Z,945
2023-03-05T09:01:45.602Z,945
2023-03-05T09:02:47.770Z,945
2023-03-05T09:03:49.746Z,945
2023-03-05T09:04:51.549Z,945
2023-03-05T09:05:53.459Z,945
2023-03-05T09:06:55.398Z,945
2023-03-05T09:07:57.249Z,945
2023-03-05T09:08:59.113Z,945
2023-03-05T09:10:00.948Z,945
2023-03-05T09:11:02.709Z,944.9
2023-03-05T09:12:04.647Z,945
2023-03-05T09:13:06.505Z,944.9
2023-03-05T09:14:08.377Z,944.9
2023-03-05T09:15:10.062Z,944.9
2023-03-05T09:16:12.199Z,944.9
2023-03-05T09:17:14.117Z,944.9
2023-03-05T09:18:15.985Z,944.8
2023-03-05T09:19:17.809Z,944.9
2023-03-05T09:20:19.665Z,944.8
2023-03-05T09:21:21.614Z,944.8
2023-03-05T09:22:23.361Z,944.8
2023-03-05T09:23:25.203Z,944.8
2023-03-05T09:24:27.067Z,944.8
2023-03-05T09:25:28.902Z,944.8
2023-03-05T09:26:30.698Z,944.8
2023-03-05T09:27:32.513Z,944.8
2023-03-05T09:28:34.359Z,944.8
2023-03-05T09:29:36.307Z,944.8
2023-03-05T09:30:38.150Z,944.8
2023-03-05T09:31:40.159Z,944.8
2023-03-05T09:32:42.385Z,944.8
2023-03-05T09:33:44.347Z,944.8
2023-03-05T09:34:46.267Z,944.8
2023-03-05T09:35:48.307Z,944.7
2023-03-05T09:36:50.483Z,944.7
2023-03-05T09:37:52.241Z,944.7
2023-03-05T09:38:54.187Z,944.7
2023-03-05T09:39:56.030Z,944.7
2023-03-05T09:40:57.879Z,944.7
2023-03-05T09:41:59.743Z,944.7
2023-03-05T09:43:01.579Z,944.7
2023-03-05T09:44:03.551Z,944.6
2023-03-05T09:45:05.292Z,944.6
2023-03-05T09:46:07.273Z,944.6
2023-03-05T09:47:09.284Z,944.6
2023-03-05T09:48:11.147Z,944.6
2023-03-05T09:49:13.114Z,944.6
2023-03-05T09:50:14.937Z,944.5
2023-03-05T09:51:16.715Z,944.6
2023-03-05T09:52:18.543Z,944.5
2023-03-05T09:53:20.285Z,944.5
2023-03-05T09:54:22.247Z,944.5
2023-03-05T09:55:24.090Z,944.5
2023-03-05T09:56:25.948Z,944.5
2023-03-05T09:57:27.800Z,944.4
2023-03-05T09:58:29.741Z,944.5
2023-03-05T09:59:31.590Z,944.5
2023-03-05T10:00:33.440Z,944.5
2023-03-05T10:01:35.392Z,944.5
2023-03-05T10:02:37.268Z,944.4
2023-03-05T10:03:39.215Z,944.5
2023-03-05T10:04:41.214Z,944.5
2023-03-05T10:05:43.212Z,944.4
2023-03-05T10:06:45.287Z,944.4
2023-03-05T10:07:47.107Z,944.4
2023-03-05T10:08:48.972Z,944.5
2023-03-05T10:09:50.817Z,944.5
2023-03-05T10:10:52.728Z,944.4
2023-03-05T10:11:54.508Z,944.4
2023-03-05T10:12:56.360Z,944.4
2023-03-05T10:13:58.427Z,944.4
2023-03-05T10:15:00.272Z,944.3
2023-03-05T10:16:04.783Z,944.3
2023-03-05T10:17:06.737Z,944.3
2023-03-05T10:18:08.578Z,944.3
2023-03-05T10:19:10.325Z,944.3
2023-03-05T10:20:12.100Z,944.2
2023-03-05T10:21:13.931Z,944.3
2023-03-05T10:22:15.821Z,944.2
2023-03-05T10:23:17.632Z,944.1
2023-03-05T10:24:19.414Z,944.2
2023-03-05T10:25:21.223Z,944.2
2023-03-05T10:26:23.083Z,944.1
2023-03-05T10:27:25.284Z,944.1
2023-03-05T10:28:27.082Z,944.1
2023-03-05T10:29:28.931Z,944.1
2023-03-05T10:30:30.779Z,944.1
2023-03-05T10:31:32.877Z,944.1
2023-03-05T10:32:34.986Z,944.1
2023-03-05T10:33:36.946Z,944.1
2023-03-05T10:34:38.795Z,944.1
2023-03-05T10:35:40.987Z,944
2023-03-05T10:36:42.912Z,944.1
2023-03-05T10:37:44.875Z,944
2023-03-05T10:38:46.816Z,944
2023-03-05T10:39:48.702Z,944
2023-03-05T10:40:50.609Z,943.9
2023-03-05T10:41:52.468Z,944
2023-03-05T10:42:54.426Z,943.9
2023-03-05T10:43:56.229Z,943.9
2023-03-05T10:44:58.128Z,943.9
2023-03-05T10:46:00.338Z,943.9
2023-03-05T10:47:02.149Z,943.9
2023-03-05T10:48:04.071Z,943.9
2023-03-05T10:49:05.924Z,943.9
2023-03-05T10:50:07.782Z,943.8
2023-03-05T10:51:09.647Z,943.9
2023-03-05T10:52:11.575Z,943.9
2023-03-05T10:53:13.537Z,943.8
2023-03-05T10:54:15.386Z,943.8
2023-03-05T10:55:17.333Z,943.8
2023-03-05T10:56:19.189Z,943.8
2023-03-05T10:57:21.036Z,943.7
2023-03-05T10:58:25.142Z,943.8
2023-03-05T10:59:27.094Z,943.7
2023-03-05T11:00:28.840Z,943.7
2023-03-05T11:01:31.089Z,943.7
2023-03-05T11:02:33.196Z,943.7
2023-03-05T11:03:35.186Z,943.7
2023-03-05T11:04:37.061Z,943.6
2023-03-05T11:05:38.826Z,943.6
2023-03-05T11:06:40.687Z,943.6
2023-03-05T11:07:42.508Z,943.6
2023-03-05T11:08:44.451Z,943.6
2023-03-05T11:09:46.303Z,943.6
2023-03-05T11:10:48.154Z,943.6
2023-03-05T11:11:50.107Z,943.5
2023-03-05T11:12:51.972Z,943.5
2023-03-05T11:13:53.815Z,943.5
2023-03-05T11:14:55.663Z,943.5
2023-03-05T11:15:57.829Z,943.5
2023-03-05T11:16:59.869Z,943.5
2023-03-05T11:18:01.713Z,943.4
2023-03-05T11:19:03.665Z,943.4
2023-03-05T11:20:05.445Z,943.4
2023-03-05T11:21:07.261Z,943.4
2023-03-05T11:22:09.163Z,943.4
2023-03-05T11:23:11.463Z,943.4
2023-03-05T11:24:13.433Z,943.4
2023-03-05T11:25:15.378Z,943.4
2023-03-05T11:26:17.233Z,943.4
2023-03-05T11:27:19.078Z,943.4
2023-03-05T11:28:34.161Z,943.3
2023-03-05T11:29:35.990Z,943.3
2023-03-05T11:30:38.076Z,943.3
2023-03-05T11:31:40.004Z,943.3
2023-03-05T11:32:42.046Z,943.3
2023-03-05T11:33:43.830Z,943.2
2023-03-05T11:34:45.554Z,943.2
2023-03-05T11:35:47.643Z,943.2
2023-03-05T11:36:49.863Z,943.3
2023-03-05T11:37:51.834Z,943.2
2023-03-05T11:38:53.660Z,943.2
2023-03-05T11:39:55.616Z,943.2
2023-03-05T11:40:57.482Z,943.1
2023-03-05T11:41:59.259Z,943.1
2023-03-05T11:43:00.964Z,943.1
2023-03-05T11:44:02.748Z,943.1
2023-03-05T11:45:04.565Z,943.1
2023-03-05T11:46:06.682Z,943.1
2023-03-05T11:47:08.771Z,943.1
2023-03-05T11:48:10.628Z,943
2023-03-05T11:49:12.576Z,943
2023-03-05T11:50:14.469Z,943
2023-03-05T11:51:16.292Z,943
2023-03-05T11:52:18.228Z,943
2023-03-05T11:53:20.142Z,943
2023-03-05T11:54:22.038Z,943
2023-03-05T11:55:23.888Z,942.9
2023-03-05T11:56:25.804Z,942.9
2023-03-05T11:57:27.699Z,942.9
2023-03-05T11:58:29.540Z,942.8
2023-03-05T11:59:31.384Z,942.9
2023-03-05T12:00:35.873Z,942.8
2023-03-05T12:01:37.874Z,942.8
2023-03-05T12:02:39.929Z,942.8
2023-03-05T12:03:42.025Z,942.8
2023-03-05T12:04:43.921Z,942.8
2023-03-05T12:05:45.759Z,942.7
2023-03-05T12:06:47.662Z,942.7
2023-03-05T12:07:49.462Z,942.7
2023-03-05T12:08:51.442Z,942.7
2023-03-05T12:09:53.622Z,942.7
2023-03-05T12:10:55.540Z,942.7
2023-03-05T12:11:57.482Z,942.7
2023-03-05T12:12:59.434Z,942.6
2023-03-05T12:14:01.337Z,942.6
2023-03-05T12:15:03.143Z,942.6
2023-03-05T12:16:07.919Z,942.6
2023-03-05T12:17:10.018Z,942.6
2023-03-05T12:18:11.958Z,942.6
2023-03-05T12:19:13.712Z,942.5
2023-03-05T12:20:15.944Z,942.6
2023-03-05T12:21:17.918Z,942.6
2023-03-05T12:22:19.878Z,942.5
2023-03-05T12:23:21.735Z,942.5
2023-03-05T12:24:28.715Z,942.5
2023-03-05T12:25:30.550Z,942.5
2023-03-05T12:26:32.290Z,942.5
2023-03-05T12:27:34.268Z,942.5
2023-03-05T12:28:36.110Z,942.5
2023-03-05T12:29:37.951Z,942.5
2023-03-05T12:30:39.745Z,942.5
2023-03-05T12:31:42.429Z,942.5
2023-03-05T12:32:45.362Z,942.5
2023-03-05T12:33:47.295Z,942.5
2023-03-05T12:34:49.150Z,942.4
2023-03-05T12:35:51.139Z,942.4
2023-03-05T12:36:53.863Z,942.4
2023-03-05T12:37:55.815Z,942.4
2023-03-05T12:38:57.788Z,942.4
2023-03-05T12:39:59.643Z,942.4
2023-03-05T12:41:01.465Z,942.4
2023-03-05T12:42:03.221Z,942.4
2023-03-05T12:43:05.075Z,942.4
2023-03-05T12:44:09.783Z,942.4
2023-03-05T12:45:11.665Z,942.4
2023-03-05T12:46:13.598Z,942.3
2023-03-05T12:47:15.442Z,942.3
2023-03-05T12:48:17.406Z,942.3
2023-03-05T12:49:19.458Z,942.4
2023-03-05T12:50:21.301Z,942.4
2023-03-05T12:51:23.047Z,942.3
2023-03-05T12:52:27.978Z,942.4
2023-03-05T12:53:29.705Z,942.3
2023-03-05T12:54:31.673Z,942.3
2023-03-05T12:55:33.572Z,942.3
2023-03-05T12:56:35.372Z,942.3
2023-03-05T12:57:37.214Z,942.3
2023-03-05T12:58:39.076Z,942.3
2023-03-05T12:59:41.030Z,942.3
2023-03-05T13:00:42.883Z,942.3
2023-03-05T13:01:44.716Z,942.4
2023-03-05T13:02:46.566Z,942.3
2023-03-05T13:03:48.542Z,942.3
2023-03-05T13:04:50.672Z,942.3
2023-03-05T13:05:52.522Z,942.3
2023-03-05T13:06:54.388Z,942.3
2023-03-05T13:07:56.224Z,942.3
2023-03-05T13:08:58.072Z,942.3
2023-03-05T13:10:00.000Z,942.3
2023-03-05T13:11:01.910Z,942.3
2023-03-05T13:12:03.910Z,942.3
2023-03-05T13:13:05.880Z,942.3
2023-03-05T13:14:07.738Z,942.3
2023-03-05T13:15:09.686Z,942.3
2023-03-05T13:16:11.581Z,942.4
2023-03-05T13:17:13.595Z,942.3
2023-03-05T13:18:15.553Z,942.2
2023-03-05T13:19:17.288Z,942.2
2023-03-05T13:20:19.249Z,942.3
2023-03-05T13:21:21.016Z,942.3